WETTERDATEN

GESTERN
Time Temp. Taup. r.Fe. Windrich Windstärke Windböe Druck 1h Prec. 24h Prec.
00:02 11.9 8.7 81 0 0 1017.2 0.0000 0.0000
00:12 11.8 8.8 82 0 0 1017 0.0000 0.0000
00:22 11.7 8.7 82 0 0 1017.1 0.0000 0.0000
00:32 11.6 8.6 82 0 0 1017.1 0.0000 0.0000
00:42 11.5 8.7 83 0 0 1017.2 0.0000 0.0000
00:52 11.4 8.6 83 0 0 1017.1 0.0000 0.0000
01:02 11.2 8.4 83 0 0 1017.3 0.0000 0.0000
01:13 11.1 8.3 83 0 0 1017.2 0.0000 0.0000
01:23 11 8.2 83 0 0 1017.3 0.0000 0.0000
01:32 10.9 8.1 83 0 0 1017.2 0.0000 0.0000
01:42 10.8 8.2 84 0 0 1017.1 0.0000 0.0000
01:53 10.7 8.1 84 0 0 1017.1 0.0000 0.0000
02:03 10.5 7.9 84 0 0 1017 0.0000 0.0000
02:13 10.4 7.8 84 0 0 1016.9 0.0000 0.0000
02:23 10.3 7.7 84 0 0 1016.9 0.0000 0.0000
02:33 10.2 7.6 84 0 0 1016.9 0.0000 0.0000
02:43 10.1 7.7 85 0 0 1016.8 0.0000 0.0000
02:53 10 7.6 85 0 0 1017 0.0000 0.0000
03:04 9.9 7.5 85 0 0 1016.9 0.0000 0.0000
03:14 9.8 7.4 85 0 0 1016.9 0.0000 0.0000
03:23 9.7 7.3 85 0 0 1016.7 0.0000 0.0000
03:34 9.6 7.2 85 0 0 1016.7 0.0000 0.0000
03:44 9.5 7.1 85 0 0 1016.6 0.0000 0.0000
03:54 9.4 7 85 0 0 1016.5 0.0000 0.0000
04:04 9.4 7.2 86 0 0 1016.5 0.0000 0.0000
04:14 9.3 7.1 86 0 0 1016.4 0.0000 0.0000
04:24 9.2 7 86 0 0 1016.4 0.0000 0.0000
04:34 9.2 7 86 0 0 1016.2 0.0000 0.0000
04:44 9.1 6.9 86 0 0 1016.2 0.0000 0.0000
04:55 9 6.8 86 0 0 1016.2 0.0000 0.0000
05:04 9 6.8 86 0 0 1016 0.0000 0.0000
05:14 8.9 6.7 86 0 0 1015.9 0.0000 0.0000
05:25 8.9 6.9 87 0 0 1015.9 0.0000 0.0000
05:35 8.9 6.9 87 0 0 1016 0.0000 0.0000
05:45 8.9 6.9 87 0 0 1016 0.0000 0.0000
05:55 8.8 6.8 87 0 0 1015.8 0.0000 0.0000
06:05 8.8 6.8 87 0 0 1015.9 0.0000 0.0000
06:15 8.7 6.7 87 0 0 1015.8 0.0000 0.0000
06:25 8.7 6.7 87 0 0 1015.7 0.0000 0.0000
06:36 8.6 6.6 87 0 0 1015.9 0.0000 0.0000
06:46 8.5 6.5 87 0 0 1015.8 0.0000 0.0000
06:55 8.5 6.5 87 0 0 1015.8 0.0000 0.0000
07:05 8.4 6.4 87 0 0 1015.9 0.0000 0.0000
07:16 8.3 6.3 87 0 0 1016 0.0000 0.0000
07:26 8.3 6.3 87 0 0 1016 0.0000 0.0000
07:36 8.3 6.3 87 0 0 1016.2 0.0000 0.0000
07:46 8.3 6.4 88 0 0 1016.3 0.0000 0.0000
07:56 8.4 6.5 88 0 0 1016.3 0.0000 0.0000
08:06 8.5 6.6 88 0 0 1016.3 0.0000 0.0000
08:16 8.8 7.1 89 0 0 1016.4 0.0000 0.0000
08:27 9.3 7.6 89 0 0 1016.3 0.0000 0.0000
08:36 9.8 8.2 90 0 0 1016.3 0.0000 0.0000
08:44 10.2 8.6 90 0 0 1016.3 0.0000 0.0000
08:53 10.9 9.5 91 0 0 1016.3 0.0000 0.0000
09:03 11.8 10.4 91 0 0 1016.2 0.0000 0.0000
09:14 12.6 11.2 91 0 0 1016.1 0.0000 0.0000
09:24 13.6 12.2 91 0 0 1016.1 0.0000 0.0000
09:34 14.4 12.6 89 0 0 1016.2 0.0000 0.0000
09:43 15 12.9 87 0 0 1016.3 0.0000 0.0000
09:54 15.4 12.7 84 0 0 1016.4 0.0000 0.0000
10:04 15.7 12.6 82 0 0 1016.5 0.0000 0.0000
10:14 16 12.7 81 0 0 1016.6 0.0000 0.0000
10:24 16.3 12.7 79 0 0 1016.6 0.0000 0.0000
10:34 16.5 12.5 77 0 0 1016.5 0.0000 0.0000
10:44 16.8 12.6 76 0 0 1016.6 0.0000 0.0000
10:54 17 12.5 75 0 0 1016.9 0.0000 0.0000
11:05 17.2 12.5 74 0 0 1016.8 0.0000 0.0000
11:15 17.3 12.2 72 0 0 1016.8 0.0000 0.0000
11:24 17.4 12.5 73 0 0 1016.7 0.0000 0.0000
11:35 17.5 12.4 72 0 0 1016.9 0.0000 0.0000
11:45 17.6 12.3 71 0 0 1016.7 0.0000 0.0000
11:55 17.9 12.6 71 0 0 1016.7 0.0000 0.0000
12:05 18.3 12.7 70 0 0 1016.7 0.0000 0.0000
12:15 18.8 13.2 70 0 0 1016.6 0.0000 0.0000
12:25 19.5 13.4 68 0 0 1016.5 0.0000 0.0000
12:35 19.9 13.6 67 0 0 1016.6 0.0000 0.0000
12:45 20.2 13.7 66 0 0 1016.5 0.0000 0.0000
12:56 20.8 13.7 64 0 0 1016.3 0.0000 0.0000
13:06 22 14.6 63 0 0 1016.3 0.0000 0.0000
13:15 22.4 14.5 61 0 0 1016.3 0.0000 0.0000
13:26 22.8 14.6 60 0 0 1016.1 0.0000 0.0000
13:36 23.3 15.1 60 0 0 1016 0.0000 0.0000
13:46 23.4 14.7 58 0 0 1015.9 0.0000 0.0000
13:56 23.1 14.7 59 0 0 1015.9 0.0000 0.0000
14:06 23 14.3 58 0 0 1015.8 0.0000 0.0000
14:16 23.2 14.5 58 0 0 1015.8 0.0000 0.0000
14:26 22.7 14 58 0 0 1015.9 0.0000 0.0000
14:37 22.3 13.9 59 0 0 1016 0.0000 0.0000
14:47 21.9 13.8 60 0 0 1015.8 0.0000 0.0000
14:56 21.4 13.6 61 0 0 1015.9 0.0000 0.0000
15:06 20.8 13.3 62 0 0 1015.8 0.0000 0.0000
15:17 20.4 12.9 62 0 0 1015.9 0.0000 0.0000
15:27 20 13 64 0 0 1016 0.0000 0.0000
15:37 19.6 12.8 65 0 0 1016 0.0000 0.0000
15:47 19.4 12.7 65 0 0 1016 0.0000 0.0000
15:57 19 12.5 66 0 0 1016.1 0.0000 0.0000
16:07 18.9 12.4 66 0 0 1016.3 0.0000 0.0000
16:17 18.5 11.8 65 0 0 1016.1 0.0000 0.0000
16:28 18.3 11.8 66 0 0 1016.1 0.0000 0.0000
16:37 18.1 11.9 67 0 0 1016 0.0000 0.0000
16:47 17.9 11.9 68 0 0 1016 0.0000 0.0000
16:58 17.7 11.7 68 0 0 1016.1 0.0000 0.0000
17:08 17.6 11.9 69 0 0 1016.1 0.0000 0.0000
17:18 17.5 11.8 69 0 0 1016.2 0.0000 0.0000
17:27 17.4 11.7 69 0 0 1016.2 0.0000 0.0000
17:38 17.3 11.6 69 0 0 1016.3 0.0000 0.0000
17:48 17.1 11.4 69 0 0 1016.3 0.0000 0.0000
17:58 16.9 11.2 69 0 0 1016.4 0.0000 0.0000
18:08 16.8 11.1 69 0 0 1016.4 0.0000 0.0000
18:18 16.6 11.1 70 0 0 1016.5 0.0000 0.0000
18:28 16.4 10.7 69 0 0 1016.5 0.0000 0.0000
18:38 16.1 10.4 69 0 0 1016.5 0.0000 0.0000
18:49 15.9 10.4 70 0 0 1016.5 0.0000 0.0000
18:59 15.8 10.3 70 0 0 1016.6 0.0000 0.0000
19:09 15.6 10.2 70 0 0 1016.6 0.0000 0.0000
19:18 15.4 10.2 71 0 0 1016.8 0.0000 0.0000
19:29 15.3 10.1 71 0 0 1016.8 0.0000 0.0000
19:39 15.1 10.1 72 0 0 1016.9 0.0000 0.0000
19:49 15 10 72 0 0 1017.1 0.0000 0.0000
19:59 14.8 9.8 72 0 0 1017.2 0.0000 0.0000
20:09 14.7 9.7 72 0 0 1017.2 0.0000 0.0000
20:19 14.6 9.8 73 0 0 1017.5 0.0000 0.0000
20:29 14.4 9.4 72 0 0 1017.5 0.0000 0.0000
20:39 14.3 9.3 72 0 0 1017.5 0.0000 0.0000
20:49 14.3 9.5 73 0 0 1017.5 0.0000 0.0000
20:59 14.1 9.3 73 0 0 1017.5 0.0000 0.0000
21:10 14 9.2 73 0 0 1017.5 0.0000 0.0000
21:20 13.9 9.1 73 0 0 1017.5 0.0000 0.0000
21:29 13.8 9.1 73 0 0 1017.5 0.0000 0.0000
21:39 13.7 9 73 0 0 1017.5 0.0000 0.0000
21:50 13.6 8.9 73 0 0 1017.7 0.0000 0.0000
22:00 13.5 8.8 73 0 0 1017.8 0.0000 0.0000
22:10 13.5 8.8 73 0 0 1017.8 0.0000 0.0000
22:20 13.5 8.8 73 0 0 1017.9 0.0000 0.0000
22:30 13.4 8.7 73 0 0 1017.8 0.0000 0.0000
22:40 13.3 8.6 73 0 0 1018.1 0.0000 0.0000
22:50 13.3 8.6 73 0 0 1018.1 0.0000 0.0000
23:01 13.3 8.6 73 0 0 1018.2 0.0000 0.0000
23:10 13.2 8.7 74 0 0 1018.3 0.0000 0.0000
23:20 13.2 8.7 74 0 0 1018.2 0.0000 0.0000
23:31 13.1 8.8 75 0 0 1018.4 0.0000 0.0000
23:41 13.1 8.8 75 0 0 1018.4 0.0000 0.0000
23:50 13 8.7 75 0 0 1018.5 0.0000

TAGESSTATISTIK

2021-09-19
TEMPERATUR
MITTEL
14.2
MAXIMUM
23.4
13:46
MINIMUM
8.3
07:16
LUFTDRUCK
MITTEL
1016.6
MAXIMUM
1018.5
23:50
MINIMUM
1015.7
06:25
TAUPUNKT
MITTEL
10.0
MAXIMUM
15.1
13:36
MINIMUM
6.3
07:16
FEUCHTIGKEIT
MITTEL
76
MAXIMUM
91
08:53
MINIMUM
58
13:46
WINDSTÄRKE
MITTEL
0.0
MAXIMUM
0.0
08:11
WINDBÖE
MITTEL
0.0
MAXIMUM
0.0
08:11
WINDRICHTUNG
VORHERRSCHENDE
%
NIEDERSCHLAG
REGEN STUNDE
0.0
REGEN TAG
0.0
TEMPERATUR (°C)
MINIMUM
8.3
MAXIMUM
23.4
MITTEL
14.2
LUFTDRUCK (hpa)
MINIMUM
1015.7
MAXIMUM
1018.5
MITTEL
1016.6
MESSGERÄT